sensor_id;sensor_type;location;lat;lon;timestamp;pressure;altitude;pressure_sealevel;temperature
76898;BMP180;65856;52.178;21.176;2023-09-19T00:00:46;99944.60;;;19.84
76898;BMP180;65856;52.178;21.176;2023-09-19T00:03:15;99942.40;;;19.80
76898;BMP180;65856;52.178;21.176;2023-09-19T00:05:41;99938.00;;;19.80
76898;BMP180;65856;52.178;21.176;2023-09-19T00:08:10;99938.40;;;19.80
76898;BMP180;65856;52.178;21.176;2023-09-19T00:10:36;99938.00;;;19.72
76898;BMP180;65856;52.178;21.176;2023-09-19T00:13:04;99939.40;;;19.70
76898;BMP180;65856;52.178;21.176;2023-09-19T00:15:40;99937.80;;;19.70
76898;BMP180;65856;52.178;21.176;2023-09-19T00:18:08;99936.40;;;19.66
76898;BMP180;65856;52.178;21.176;2023-09-19T00:20:38;99935.60;;;19.60
76898;BMP180;65856;52.178;21.176;2023-09-19T00:23:05;99930.80;;;19.60
76898;BMP180;65856;52.178;21.176;2023-09-19T00:25:31;99937.60;;;19.60
76898;BMP180;65856;52.178;21.176;2023-09-19T00:27:57;99934.60;;;19.60
76898;BMP180;65856;52.178;21.176;2023-09-19T00:30:23;99933.00;;;19.60
76898;BMP180;65856;52.178;21.176;2023-09-19T00:32:50;99929.80;;;19.56
76898;BMP180;65856;52.178;21.176;2023-09-19T00:35:22;99926.40;;;19.50
76898;BMP180;65856;52.178;21.176;2023-09-19T00:37:51;99931.00;;;19.50
76898;BMP180;65856;52.178;21.176;2023-09-19T00:40:19;99930.80;;;19.50
76898;BMP180;65856;52.178;21.176;2023-09-19T00:42:46;99928.60;;;19.42
76898;BMP180;65856;52.178;21.176;2023-09-19T00:45:16;99924.60;;;19.40
76898;BMP180;65856;52.178;21.176;2023-09-19T00:47:46;99919.20;;;19.40
76898;BMP180;65856;52.178;21.176;2023-09-19T00:50:19;99920.00;;;19.40
76898;BMP180;65856;52.178;21.176;2023-09-19T00:52:48;99917.00;;;19.40
76898;BMP180;65856;52.178;21.176;2023-09-19T00:55:16;99917.00;;;19.30
76898;BMP180;65856;52.178;21.176;2023-09-19T00:57:45;99916.60;;;19.30
76898;BMP180;65856;52.178;21.176;2023-09-19T01:00:12;99911.40;;;19.30
76898;BMP180;65856;52.178;21.176;2023-09-19T01:02:42;99911.60;;;19.30
76898;BMP180;65856;52.178;21.176;2023-09-19T01:05:09;99908.00;;;19.28
76898;BMP180;65856;52.178;21.176;2023-09-19T01:07:36;99908.60;;;19.20
76898;BMP180;65856;52.178;21.176;2023-09-19T01:10:11;99905.80;;;19.20
76898;BMP180;65856;52.178;21.176;2023-09-19T01:15:49;99904.40;;;19.20
76898;BMP180;65856;52.178;21.176;2023-09-19T01:21:28;99895.80;;;19.10
76898;BMP180;65856;52.178;21.176;2023-09-19T01:24:23;99894.40;;;19.10
76898;BMP180;65856;52.178;21.176;2023-09-19T01:30:35;99888.60;;;19.10
76898;BMP180;65856;52.178;21.176;2023-09-19T01:33:06;99884.80;;;19.10
76898;BMP180;65856;52.178;21.176;2023-09-19T01:35:33;99881.80;;;19.10
76898;BMP180;65856;52.178;21.176;2023-09-19T01:37:59;99877.00;;;19.10
76898;BMP180;65856;52.178;21.176;2023-09-19T01:40:25;99872.40;;;19.10
76898;BMP180;65856;52.178;21.176;2023-09-19T01:43:15;99869.80;;;19.10
76898;BMP180;65856;52.178;21.176;2023-09-19T01:46:17;99869.20;;;19.10
76898;BMP180;65856;52.178;21.176;2023-09-19T01:49:27;99869.60;;;19.02
76898;BMP180;65856;52.178;21.176;2023-09-19T01:52:14;99868.20;;;19.00
76898;BMP180;65856;52.178;21.176;2023-09-19T01:54:52;99864.80;;;19.00
76898;BMP180;65856;52.178;21.176;2023-09-19T01:57:54;99860.60;;;19.00
76898;BMP180;65856;52.178;21.176;2023-09-19T02:00:28;99858.00;;;19.00
76898;BMP180;65856;52.178;21.176;2023-09-19T02:02:56;99862.00;;;19.00
76898;BMP180;65856;52.178;21.176;2023-09-19T02:05:25;99857.00;;;19.00
76898;BMP180;65856;52.178;21.176;2023-09-19T02:07:51;99862.40;;;18.98
76898;BMP180;65856;52.178;21.176;2023-09-19T02:10:19;99861.00;;;18.96
76898;BMP180;65856;52.178;21.176;2023-09-19T02:12:44;99859.40;;;18.90
76898;BMP180;65856;52.178;21.176;2023-09-19T02:15:10;99857.80;;;18.90
76898;BMP180;65856;52.178;21.176;2023-09-19T02:17:36;99860.40;;;18.90
76898;BMP180;65856;52.178;21.176;2023-09-19T02:20:03;99855.00;;;18.90
76898;BMP180;65856;52.178;21.176;2023-09-19T02:22:36;99850.00;;;18.90
76898;BMP180;65856;52.178;21.176;2023-09-19T02:25:02;99853.40;;;18.90
76898;BMP180;65856;52.178;21.176;2023-09-19T02:27:32;99847.40;;;18.90
76898;BMP180;65856;52.178;21.176;2023-09-19T02:29:58;99846.00;;;18.90
76898;BMP180;65856;52.178;21.176;2023-09-19T02:32:23;99847.80;;;18.90
76898;BMP180;65856;52.178;21.176;2023-09-19T02:34:49;99841.80;;;18.90
76898;BMP180;65856;52.178;21.176;2023-09-19T02:37:17;99838.80;;;18.90
76898;BMP180;65856;52.178;21.176;2023-09-19T02:39:44;99836.80;;;18.80
76898;BMP180;65856;52.178;21.176;2023-09-19T02:42:09;99824.40;;;18.80
76898;BMP180;65856;52.178;21.176;2023-09-19T02:44:35;99817.00;;;18.80
76898;BMP180;65856;52.178;21.176;2023-09-19T02:47:00;99822.20;;;18.70
76898;BMP180;65856;52.178;21.176;2023-09-19T02:49:26;99818.80;;;18.70
76898;BMP180;65856;52.178;21.176;2023-09-19T02:51:51;99813.20;;;18.70
76898;BMP180;65856;52.178;21.176;2023-09-19T02:54:17;99822.60;;;18.70
76898;BMP180;65856;52.178;21.176;2023-09-19T02:56:43;99824.20;;;18.70
76898;BMP180;65856;52.178;21.176;2023-09-19T02:59:09;99824.00;;;18.70
76898;BMP180;65856;52.178;21.176;2023-09-19T03:01:38;99819.80;;;18.70
76898;BMP180;65856;52.178;21.176;2023-09-19T03:04:04;99815.40;;;18.70
76898;BMP180;65856;52.178;21.176;2023-09-19T03:06:31;99820.40;;;18.70
76898;BMP180;65856;52.178;21.176;2023-09-19T03:08:57;99809.20;;;18.70
76898;BMP180;65856;52.178;21.176;2023-09-19T03:11:24;99806.40;;;18.70
76898;BMP180;65856;52.178;21.176;2023-09-19T03:13:53;99805.00;;;18.70
76898;BMP180;65856;52.178;21.176;2023-09-19T03:16:19;99794.20;;;18.66
76898;BMP180;65856;52.178;21.176;2023-09-19T03:18:48;99789.20;;;18.60
76898;BMP180;65856;52.178;21.176;2023-09-19T03:21:15;99784.40;;;18.60
76898;BMP180;65856;52.178;21.176;2023-09-19T03:23:42;99784.00;;;18.60
76898;BMP180;65856;52.178;21.176;2023-09-19T03:26:12;99787.60;;;18.50
76898;BMP180;65856;52.178;21.176;2023-09-19T03:28:38;99786.60;;;18.50
76898;BMP180;65856;52.178;21.176;2023-09-19T03:31:05;99788.60;;;18.50
76898;BMP180;65856;52.178;21.176;2023-09-19T03:33:32;99793.00;;;18.50
76898;BMP180;65856;52.178;21.176;2023-09-19T03:35:58;99796.40;;;18.50
76898;BMP180;65856;52.178;21.176;2023-09-19T03:38:25;99791.40;;;18.50
76898;BMP180;65856;52.178;21.176;2023-09-19T03:40:51;99787.60;;;18.50
76898;BMP180;65856;52.178;21.176;2023-09-19T03:43:16;99783.20;;;18.50
76898;BMP180;65856;52.178;21.176;2023-09-19T03:45:43;99781.60;;;18.50
76898;BMP180;65856;52.178;21.176;2023-09-19T03:48:09;99783.40;;;18.50
76898;BMP180;65856;52.178;21.176;2023-09-19T03:50:35;99778.40;;;18.50
76898;BMP180;65856;52.178;21.176;2023-09-19T03:53:01;99775.40;;;18.50
76898;BMP180;65856;52.178;21.176;2023-09-19T03:55:27;99775.00;;;18.50
76898;BMP180;65856;52.178;21.176;2023-09-19T03:57:53;99778.80;;;18.50
76898;BMP180;65856;52.178;21.176;2023-09-19T04:00:19;99775.20;;;18.50
76898;BMP180;65856;52.178;21.176;2023-09-19T04:02:48;99777.20;;;18.44
76898;BMP180;65856;52.178;21.176;2023-09-19T04:05:14;99783.00;;;18.48
76898;BMP180;65856;52.178;21.176;2023-09-19T04:07:39;99779.00;;;18.46
76898;BMP180;65856;52.178;21.176;2023-09-19T04:10:06;99776.40;;;18.40
76898;BMP180;65856;52.178;21.176;2023-09-19T04:12:34;99771.60;;;18.40
76898;BMP180;65856;52.178;21.176;2023-09-19T04:14:59;99773.00;;;18.40
76898;BMP180;65856;52.178;21.176;2023-09-19T04:17:25;99762.80;;;18.40
76898;BMP180;65856;52.178;21.176;2023-09-19T04:19:51;99761.00;;;18.40
76898;BMP180;65856;52.178;21.176;2023-09-19T04:22:16;99758.40;;;18.40
76898;BMP180;65856;52.178;21.176;2023-09-19T04:24:42;99757.40;;;18.40
76898;BMP180;65856;52.178;21.176;2023-09-19T04:27:08;99754.60;;;18.40
76898;BMP180;65856;52.178;21.176;2023-09-19T04:29:35;99753.60;;;18.40
76898;BMP180;65856;52.178;21.176;2023-09-19T04:32:00;99749.20;;;18.40
76898;BMP180;65856;52.178;21.176;2023-09-19T04:34:26;99746.20;;;18.40
76898;BMP180;65856;52.178;21.176;2023-09-19T04:36:52;99742.60;;;18.40
76898;BMP180;65856;52.178;21.176;2023-09-19T04:39:18;99738.60;;;18.40
76898;BMP180;65856;52.178;21.176;2023-09-19T04:41:44;99734.40;;;18.40
76898;BMP180;65856;52.178;21.176;2023-09-19T04:44:10;99737.80;;;18.40
76898;BMP180;65856;52.178;21.176;2023-09-19T04:46:35;99733.80;;;18.40
76898;BMP180;65856;52.178;21.176;2023-09-19T04:49:01;99735.20;;;18.50
76898;BMP180;65856;52.178;21.176;2023-09-19T04:51:27;99732.60;;;18.50
76898;BMP180;65856;52.178;21.176;2023-09-19T04:53:58;99732.80;;;18.50
76898;BMP180;65856;52.178;21.176;2023-09-19T04:56:24;99731.80;;;18.60
76898;BMP180;65856;52.178;21.176;2023-09-19T04:58:49;99726.80;;;18.66
76898;BMP180;65856;52.178;21.176;2023-09-19T05:01:15;99731.20;;;18.70
76898;BMP180;65856;52.178;21.176;2023-09-19T05:03:41;99721.20;;;18.80
76898;BMP180;65856;52.178;21.176;2023-09-19T05:06:07;99720.40;;;18.90
76898;BMP180;65856;52.178;21.176;2023-09-19T05:08:33;99729.00;;;18.90
76898;BMP180;65856;52.178;21.176;2023-09-19T05:11:01;99732.60;;;18.90
76898;BMP180;65856;52.178;21.176;2023-09-19T05:13:27;99728.40;;;18.90
76898;BMP180;65856;52.178;21.176;2023-09-19T05:15:52;99728.40;;;19.00
76898;BMP180;65856;52.178;21.176;2023-09-19T05:18:18;99722.60;;;19.00
76898;BMP180;65856;52.178;21.176;2023-09-19T05:20:43;99727.80;;;19.00
76898;BMP180;65856;52.178;21.176;2023-09-19T05:23:09;99723.80;;;19.00
76898;BMP180;65856;52.178;21.176;2023-09-19T05:25:39;99726.00;;;19.00
76898;BMP180;65856;52.178;21.176;2023-09-19T05:28:07;99723.20;;;19.00
76898;BMP180;65856;52.178;21.176;2023-09-19T05:30:35;99720.80;;;19.00
76898;BMP180;65856;52.178;21.176;2023-09-19T05:33:02;99722.00;;;19.00
76898;BMP180;65856;52.178;21.176;2023-09-19T05:35:30;99723.80;;;19.02
76898;BMP180;65856;52.178;21.176;2023-09-19T05:37:56;99724.20;;;19.04
76898;BMP180;65856;52.178;21.176;2023-09-19T05:40:24;99717.20;;;19.00
76898;BMP180;65856;52.178;21.176;2023-09-19T05:42:50;99720.40;;;19.02
76898;BMP180;65856;52.178;21.176;2023-09-19T05:45:16;99716.40;;;19.10
76898;BMP180;65856;52.178;21.176;2023-09-19T05:47:51;99713.00;;;19.10
76898;BMP180;65856;52.178;21.176;2023-09-19T05:50:21;99715.20;;;19.10
76898;BMP180;65856;52.178;21.176;2023-09-19T05:52:54;99710.20;;;19.10
76898;BMP180;65856;52.178;21.176;2023-09-19T05:55:21;99707.60;;;19.10
76898;BMP180;65856;52.178;21.176;2023-09-19T05:57:53;99717.40;;;19.10
76898;BMP180;65856;52.178;21.176;2023-09-19T06:00:21;99712.80;;;19.10
76898;BMP180;65856;52.178;21.176;2023-09-19T06:02:55;99714.20;;;19.20
76898;BMP180;65856;52.178;21.176;2023-09-19T06:05:26;99709.80;;;19.20
76898;BMP180;65856;52.178;21.176;2023-09-19T06:07:53;99711.40;;;19.20
76898;BMP180;65856;52.178;21.176;2023-09-19T06:10:19;99713.00;;;19.26
76898;BMP180;65856;52.178;21.176;2023-09-19T06:12:48;99713.00;;;19.30
76898;BMP180;65856;52.178;21.176;2023-09-19T06:15:15;99712.80;;;19.30
76898;BMP180;65856;52.178;21.176;2023-09-19T06:17:52;99711.80;;;19.30
76898;BMP180;65856;52.178;21.176;2023-09-19T06:20:23;99721.40;;;19.30
76898;BMP180;65856;52.178;21.176;2023-09-19T06:22:49;99721.00;;;19.30
76898;BMP180;65856;52.178;21.176;2023-09-19T06:25:16;99719.80;;;19.40
76898;BMP180;65856;52.178;21.176;2023-09-19T06:27:53;99715.40;;;19.40
76898;BMP180;65856;52.178;21.176;2023-09-19T06:30:21;99714.20;;;19.40
76898;BMP180;65856;52.178;21.176;2023-09-19T06:32:49;99718.20;;;19.40
76898;BMP180;65856;52.178;21.176;2023-09-19T06:35:15;99716.20;;;19.40
76898;BMP180;65856;52.178;21.176;2023-09-19T06:37:42;99714.80;;;19.50
76898;BMP180;65856;52.178;21.176;2023-09-19T06:40:13;99726.00;;;19.50
76898;BMP180;65856;52.178;21.176;2023-09-19T06:42:46;99732.40;;;19.56
76898;BMP180;65856;52.178;21.176;2023-09-19T06:45:14;99742.80;;;19.60
76898;BMP180;65856;52.178;21.176;2023-09-19T06:47:49;99755.20;;;19.62
76898;BMP180;65856;52.178;21.176;2023-09-19T06:50:16;99758.80;;;19.70
76898;BMP180;65856;52.178;21.176;2023-09-19T06:52:44;99760.20;;;19.70
76898;BMP180;65856;52.178;21.176;2023-09-19T06:55:10;99759.60;;;19.80
76898;BMP180;65856;52.178;21.176;2023-09-19T06:57:39;99763.20;;;19.80
76898;BMP180;65856;52.178;21.176;2023-09-19T07:00:06;99756.80;;;19.90
76898;BMP180;65856;52.178;21.176;2023-09-19T07:02:55;99756.60;;;19.96
76898;BMP180;65856;52.178;21.176;2023-09-19T07:05:32;99759.60;;;20.00
76898;BMP180;65856;52.178;21.176;2023-09-19T07:08:01;99764.00;;;20.10
76898;BMP180;65856;52.178;21.176;2023-09-19T07:10:28;99765.20;;;20.20
76898;BMP180;65856;52.178;21.176;2023-09-19T07:13:07;99759.80;;;20.20
76898;BMP180;65856;52.178;21.176;2023-09-19T07:15:37;99754.60;;;20.30
76898;BMP180;65856;52.178;21.176;2023-09-19T07:18:07;99753.60;;;20.40
76898;BMP180;65856;52.178;21.176;2023-09-19T07:20:36;99751.40;;;20.60
76898;BMP180;65856;52.178;21.176;2023-09-19T07:23:02;99763.20;;;20.80
76898;BMP180;65856;52.178;21.176;2023-09-19T07:25:28;99759.60;;;21.00
76898;BMP180;65856;52.178;21.176;2023-09-19T07:27:58;99772.20;;;21.20
76898;BMP180;65856;52.178;21.176;2023-09-19T07:30:26;99781.40;;;21.50
76898;BMP180;65856;52.178;21.176;2023-09-19T07:32:53;99788.20;;;21.80
76898;BMP180;65856;52.178;21.176;2023-09-19T07:35:19;99790.00;;;22.10
76898;BMP180;65856;52.178;21.176;2023-09-19T07:37:49;99790.20;;;22.38
76898;BMP180;65856;52.178;21.176;2023-09-19T07:40:19;99791.20;;;22.64
76898;BMP180;65856;52.178;21.176;2023-09-19T07:42:45;99789.60;;;22.90
76898;BMP180;65856;52.178;21.176;2023-09-19T07:45:12;99789.80;;;23.22
76898;BMP180;65856;52.178;21.176;2023-09-19T07:47:46;99796.20;;;23.40
76898;BMP180;65856;52.178;21.176;2023-09-19T07:50:13;99794.00;;;23.40
76898;BMP180;65856;52.178;21.176;2023-09-19T07:52:41;99794.40;;;23.40
76898;BMP180;65856;52.178;21.176;2023-09-19T07:55:07;99800.00;;;23.40
76898;BMP180;65856;52.178;21.176;2023-09-19T07:57:36;99806.40;;;23.42
76898;BMP180;65856;52.178;21.176;2023-09-19T08:00:03;99808.60;;;23.50
76898;BMP180;65856;52.178;21.176;2023-09-19T08:02:36;99809.60;;;23.48
76898;BMP180;65856;52.178;21.176;2023-09-19T08:05:06;99811.40;;;23.56
76898;BMP180;65856;52.178;21.176;2023-09-19T08:07:40;99807.20;;;23.60
76898;BMP180;65856;52.178;21.176;2023-09-19T08:10:07;99802.80;;;23.60
76898;BMP180;65856;52.178;21.176;2023-09-19T08:12:36;99801.20;;;23.58
76898;BMP180;65856;52.178;21.176;2023-09-19T08:15:03;99809.60;;;23.50
76898;BMP180;65856;52.178;21.176;2023-09-19T08:17:34;99808.00;;;23.60
76898;BMP180;65856;52.178;21.176;2023-09-19T08:20:00;99805.20;;;23.60
76898;BMP180;65856;52.178;21.176;2023-09-19T08:22:26;99807.20;;;23.60
76898;BMP180;65856;52.178;21.176;2023-09-19T08:24:52;99816.20;;;23.60
76898;BMP180;65856;52.178;21.176;2023-09-19T08:27:18;99813.40;;;23.60
76898;BMP180;65856;52.178;21.176;2023-09-19T08:29:44;99814.20;;;23.60
76898;BMP180;65856;52.178;21.176;2023-09-19T08:32:10;99809.80;;;23.60
76898;BMP180;65856;52.178;21.176;2023-09-19T08:34:36;99804.80;;;23.70
76898;BMP180;65856;52.178;21.176;2023-09-19T08:37:03;99816.00;;;23.84
76898;BMP180;65856;52.178;21.176;2023-09-19T08:39:29;99813.80;;;23.90
76898;BMP180;65856;52.178;21.176;2023-09-19T08:42:00;99810.40;;;24.00
76898;BMP180;65856;52.178;21.176;2023-09-19T08:44:27;99810.00;;;24.00
76898;BMP180;65856;52.178;21.176;2023-09-19T08:47:11;99812.80;;;24.00
76898;BMP180;65856;52.178;21.176;2023-09-19T08:50:04;99812.20;;;23.90
76898;BMP180;65856;52.178;21.176;2023-09-19T08:52:43;99817.60;;;23.80
76898;BMP180;65856;52.178;21.176;2023-09-19T08:55:14;99810.00;;;23.80
76898;BMP180;65856;52.178;21.176;2023-09-19T08:57:49;99809.60;;;23.80
76898;BMP180;65856;52.178;21.176;2023-09-19T09:00:16;99807.40;;;23.80
76898;BMP180;65856;52.178;21.176;2023-09-19T09:02:46;99802.20;;;23.70
76898;BMP180;65856;52.178;21.176;2023-09-19T09:05:13;99812.60;;;23.70
76898;BMP180;65856;52.178;21.176;2023-09-19T09:07:41;99822.40;;;23.60
76898;BMP180;65856;52.178;21.176;2023-09-19T09:10:07;99817.80;;;23.50
76898;BMP180;65856;52.178;21.176;2023-09-19T09:12:35;99819.80;;;23.46
76898;BMP180;65856;52.178;21.176;2023-09-19T09:15:06;99825.60;;;23.40
76898;BMP180;65856;52.178;21.176;2023-09-19T09:17:34;99826.80;;;23.40
76898;BMP180;65856;52.178;21.176;2023-09-19T09:20:00;99825.60;;;23.30
76898;BMP180;65856;52.178;21.176;2023-09-19T09:22:25;99828.20;;;23.30
76898;BMP180;65856;52.178;21.176;2023-09-19T09:24:58;99837.60;;;23.30
76898;BMP180;65856;52.178;21.176;2023-09-19T09:27:24;99836.40;;;23.30
76898;BMP180;65856;52.178;21.176;2023-09-19T09:29:52;99839.80;;;23.30
76898;BMP180;65856;52.178;21.176;2023-09-19T09:32:26;99845.60;;;23.24
76898;BMP180;65856;52.178;21.176;2023-09-19T09:34:59;99850.60;;;23.24
76898;BMP180;65856;52.178;21.176;2023-09-19T09:37:27;99855.00;;;23.20
76898;BMP180;65856;52.178;21.176;2023-09-19T09:40:01;99858.60;;;23.18
76898;BMP180;65856;52.178;21.176;2023-09-19T09:42:39;99857.40;;;23.10
76898;BMP180;65856;52.178;21.176;2023-09-19T09:45:25;99855.40;;;23.08
76898;BMP180;65856;52.178;21.176;2023-09-19T09:48:03;99857.60;;;23.00
76898;BMP180;65856;52.178;21.176;2023-09-19T09:50:47;99863.80;;;23.00
76898;BMP180;65856;52.178;21.176;2023-09-19T09:53:30;99868.20;;;22.98
76898;BMP180;65856;52.178;21.176;2023-09-19T09:58:25;99874.20;;;22.90
76898;BMP180;65856;52.178;21.176;2023-09-19T10:00:59;99876.80;;;22.80
76898;BMP180;65856;52.178;21.176;2023-09-19T10:03:34;99875.40;;;22.80
76898;BMP180;65856;52.178;21.176;2023-09-19T10:06:05;99885.80;;;22.70
76898;BMP180;65856;52.178;21.176;2023-09-19T10:08:36;99890.80;;;22.70
76898;BMP180;65856;52.178;21.176;2023-09-19T10:11:15;99903.80;;;22.60
76898;BMP180;65856;52.178;21.176;2023-09-19T10:13:43;99907.60;;;22.40
76898;BMP180;65856;52.178;21.176;2023-09-19T10:16:12;99920.20;;;22.20
76898;BMP180;65856;52.178;21.176;2023-09-19T10:18:41;99933.00;;;22.10
76898;BMP180;65856;52.178;21.176;2023-09-19T10:21:09;99942.60;;;21.98
76898;BMP180;65856;52.178;21.176;2023-09-19T10:23:36;99951.80;;;21.80
76898;BMP180;65856;52.178;21.176;2023-09-19T10:26:05;99931.60;;;21.60
76898;BMP180;65856;52.178;21.176;2023-09-19T10:28:32;99929.00;;;21.50
76898;BMP180;65856;52.178;21.176;2023-09-19T10:31:00;99928.80;;;21.38
76898;BMP180;65856;52.178;21.176;2023-09-19T10:33:35;99924.00;;;21.30
76898;BMP180;65856;52.178;21.176;2023-09-19T10:36:05;99920.60;;;21.20
76898;BMP180;65856;52.178;21.176;2023-09-19T10:38:33;99923.80;;;21.20
76898;BMP180;65856;52.178;21.176;2023-09-19T10:41:00;99924.20;;;21.10
76898;BMP180;65856;52.178;21.176;2023-09-19T10:43:32;99930.40;;;21.10
76898;BMP180;65856;52.178;21.176;2023-09-19T10:46:03;99926.60;;;21.00
76898;BMP180;65856;52.178;21.176;2023-09-19T10:48:33;99925.20;;;21.00
76898;BMP180;65856;52.178;21.176;2023-09-19T10:53:53;99925.60;;;20.90
76898;BMP180;65856;52.178;21.176;2023-09-19T10:56:32;99920.80;;;20.90
76898;BMP180;65856;52.178;21.176;2023-09-19T10:59:14;99919.80;;;20.90
76898;BMP180;65856;52.178;21.176;2023-09-19T11:01:52;99917.60;;;20.80
76898;BMP180;65856;52.178;21.176;2023-09-19T11:04:33;99914.40;;;20.80
76898;BMP180;65856;52.178;21.176;2023-09-19T11:07:09;99906.00;;;20.80
76898;BMP180;65856;52.178;21.176;2023-09-19T11:09:52;99901.60;;;20.80
76898;BMP180;65856;52.178;21.176;2023-09-19T11:14:58;99899.20;;;20.90
76898;BMP180;65856;52.178;21.176;2023-09-19T11:17:35;99907.20;;;20.90
76898;BMP180;65856;52.178;21.176;2023-09-19T11:30:45;99917.40;;;20.86
76898;BMP180;65856;52.178;21.176;2023-09-19T11:33:32;99922.80;;;20.80
76898;BMP180;65856;52.178;21.176;2023-09-19T11:46:30;99936.00;;;20.80
76898;BMP180;65856;52.178;21.176;2023-09-19T11:49:08;99933.00;;;20.80
76898;BMP180;65856;52.178;21.176;2023-09-19T11:51:58;99930.20;;;20.82
76898;BMP180;65856;52.178;21.176;2023-09-19T11:54:31;99928.80;;;20.80
76898;BMP180;65856;52.178;21.176;2023-09-19T11:56:59;99931.40;;;20.80
76898;BMP180;65856;52.178;21.176;2023-09-19T11:59:30;99926.20;;;20.80
76898;BMP180;65856;52.178;21.176;2023-09-19T12:01:59;99930.80;;;20.80
76898;BMP180;65856;52.178;21.176;2023-09-19T12:04:41;99929.60;;;20.90
76898;BMP180;65856;52.178;21.176;2023-09-19T12:07:13;99931.20;;;20.90
76898;BMP180;65856;52.178;21.176;2023-09-19T12:09:50;99934.00;;;20.90
76898;BMP180;65856;52.178;21.176;2023-09-19T12:12:29;99936.60;;;21.00
76898;BMP180;65856;52.178;21.176;2023-09-19T12:14:57;99937.40;;;21.00
76898;BMP180;65856;52.178;21.176;2023-09-19T12:17:35;99938.20;;;21.00
76898;BMP180;65856;52.178;21.176;2023-09-19T12:20:01;99938.60;;;21.00
76898;BMP180;65856;52.178;21.176;2023-09-19T12:22:46;99943.20;;;21.00
76898;BMP180;65856;52.178;21.176;2023-09-19T12:25:13;99948.00;;;21.00
76898;BMP180;65856;52.178;21.176;2023-09-19T12:27:49;99947.00;;;21.00
76898;BMP180;65856;52.178;21.176;2023-09-19T12:30:19;99953.40;;;21.00
76898;BMP180;65856;52.178;21.176;2023-09-19T12:32:48;99955.40;;;21.00
76898;BMP180;65856;52.178;21.176;2023-09-19T12:35:31;99957.20;;;21.00
76898;BMP180;65856;52.178;21.176;2023-09-19T12:38:00;99959.40;;;21.00
76898;BMP180;65856;52.178;21.176;2023-09-19T12:40:26;99962.00;;;21.00
76898;BMP180;65856;52.178;21.176;2023-09-19T12:42:59;99969.40;;;21.00
76898;BMP180;65856;52.178;21.176;2023-09-19T12:45:28;99972.00;;;21.00
76898;BMP180;65856;52.178;21.176;2023-09-19T12:51:06;99975.80;;;21.00
76898;BMP180;65856;52.178;21.176;2023-09-19T12:53:40;99980.40;;;20.96
76898;BMP180;65856;52.178;21.176;2023-09-19T12:56:09;99976.60;;;20.90
76898;BMP180;65856;52.178;21.176;2023-09-19T12:58:58;99975.40;;;20.90
76898;BMP180;65856;52.178;21.176;2023-09-19T13:01:26;99972.80;;;21.00
76898;BMP180;65856;52.178;21.176;2023-09-19T13:04:22;99969.40;;;21.00
76898;BMP180;65856;52.178;21.176;2023-09-19T13:06:57;99964.40;;;21.00
76898;BMP180;65856;52.178;21.176;2023-09-19T13:09:27;99960.00;;;21.00
76898;BMP180;65856;52.178;21.176;2023-09-19T13:12:05;99958.80;;;21.00
76898;BMP180;65856;52.178;21.176;2023-09-19T13:15:11;99958.80;;;21.00
76898;BMP180;65856;52.178;21.176;2023-09-19T13:17:43;99962.60;;;21.00
76898;BMP180;65856;52.178;21.176;2023-09-19T13:20:30;99962.00;;;21.00
76898;BMP180;65856;52.178;21.176;2023-09-19T13:22:58;99958.40;;;21.00
76898;BMP180;65856;52.178;21.176;2023-09-19T13:25:33;99964.00;;;21.00
76898;BMP180;65856;52.178;21.176;2023-09-19T13:28:00;99963.40;;;21.00
76898;BMP180;65856;52.178;21.176;2023-09-19T13:30:30;99961.60;;;21.00
76898;BMP180;65856;52.178;21.176;2023-09-19T13:33:11;99961.40;;;20.98
76898;BMP180;65856;52.178;21.176;2023-09-19T13:35:38;99959.80;;;20.98
76898;BMP180;65856;52.178;21.176;2023-09-19T13:38:06;99962.00;;;21.00
76898;BMP180;65856;52.178;21.176;2023-09-19T13:40:34;99961.40;;;21.00
76898;BMP180;65856;52.178;21.176;2023-09-19T13:43:01;99965.20;;;21.00
76898;BMP180;65856;52.178;21.176;2023-09-19T13:45:26;99970.80;;;21.00
76898;BMP180;65856;52.178;21.176;2023-09-19T13:47:52;99971.20;;;21.02
76898;BMP180;65856;52.178;21.176;2023-09-19T13:50:19;99971.80;;;21.02
76898;BMP180;65856;52.178;21.176;2023-09-19T13:52:52;99972.80;;;21.10
76898;BMP180;65856;52.178;21.176;2023-09-19T13:55:19;99976.40;;;21.02
76898;BMP180;65856;52.178;21.176;2023-09-19T13:57:49;99970.00;;;21.08
76898;BMP180;65856;52.178;21.176;2023-09-19T14:00:16;99968.20;;;21.10
76898;BMP180;65856;52.178;21.176;2023-09-19T14:02:43;99970.60;;;21.10
76898;BMP180;65856;52.178;21.176;2023-09-19T14:05:11;99975.60;;;21.10
76898;BMP180;65856;52.178;21.176;2023-09-19T14:07:42;99976.40;;;21.10
76898;BMP180;65856;52.178;21.176;2023-09-19T14:10:10;99978.00;;;21.10
76898;BMP180;65856;52.178;21.176;2023-09-19T14:12:39;99977.00;;;21.10
76898;BMP180;65856;52.178;21.176;2023-09-19T14:15:10;99977.20;;;21.10
76898;BMP180;65856;52.178;21.176;2023-09-19T14:17:38;99977.80;;;21.10
76898;BMP180;65856;52.178;21.176;2023-09-19T14:20:05;99976.00;;;21.20
76898;BMP180;65856;52.178;21.176;2023-09-19T14:22:32;99978.20;;;21.20
76898;BMP180;65856;52.178;21.176;2023-09-19T14:24:58;99978.20;;;21.20
76898;BMP180;65856;52.178;21.176;2023-09-19T14:27:25;99979.00;;;21.20
76898;BMP180;65856;52.178;21.176;2023-09-19T14:29:50;99979.60;;;21.20
76898;BMP180;65856;52.178;21.176;2023-09-19T14:32:16;99978.40;;;21.20
76898;BMP180;65856;52.178;21.176;2023-09-19T14:34:43;99981.40;;;21.26
76898;BMP180;65856;52.178;21.176;2023-09-19T14:37:09;99981.00;;;21.28
76898;BMP180;65856;52.178;21.176;2023-09-19T14:39:37;99983.20;;;21.30
76898;BMP180;65856;52.178;21.176;2023-09-19T14:42:04;99987.60;;;21.30
76898;BMP180;65856;52.178;21.176;2023-09-19T14:44:30;99988.20;;;21.30
76898;BMP180;65856;52.178;21.176;2023-09-19T14:46:55;99988.00;;;21.30
76898;BMP180;65856;52.178;21.176;2023-09-19T14:49:21;99990.00;;;21.30
76898;BMP180;65856;52.178;21.176;2023-09-19T14:51:47;99990.80;;;21.30
76898;BMP180;65856;52.178;21.176;2023-09-19T14:54:17;99993.60;;;21.20